Time;durP1;ratioP1;P1;durP2;ratioP2;P2;SDS_P1;SDS_P2;PMS_P1;PMS_P2;Temp;Humidity;BMP_temperature;BMP_pressure;BME280_temperature;BME280_humidity;BME280_pressure;Samples;Min_cycle;Max_cycle;Signal;HPM_P1;HPM_P2
2022/05/26 00:02:56;;;;;;;1.93;0.80;;;;;;;16.80;71.72;100045.19;6274762;28;20052;-74
2022/05/26 00:05:57;;;;;;;1.38;0.80;;;;;;;16.81;72.58;100052.19;6274888;28;20041;-74
2022/05/26 00:08:59;;;;;;;0.50;0.50;;;;;;;16.86;70.79;100053.44;6258261;28;20391;-75
2022/05/26 00:12:00;;;;;;;1.00;0.57;;;;;;;16.75;71.42;100055.31;6258413;28;20086;-74
2022/05/26 00:15:01;;;;;;;0.40;0.40;;;;;;;16.76;69.01;100052.56;6274614;28;20045;-74
2022/05/26 00:18:02;;;;;;;0.50;0.43;;;;;;;16.82;69.50;100059.97;6275984;28;20411;-75
2022/05/26 00:21:03;;;;;;;0.90;0.45;;;;;;;16.83;69.03;100069.50;6274607;28;20045;-74
2022/05/26 00:24:05;;;;;;;3.13;0.80;;;;;;;16.76;69.88;100057.81;6241569;28;20049;-75
2022/05/26 00:27:05;;;;;;;1.30;0.50;;;;;;;16.74;68.58;100057.13;6275591;28;20048;-74
2022/05/26 00:30:07;;;;;;;1.75;0.55;;;;;;;16.69;68.77;100062.75;6275580;28;20084;-74
2022/05/26 00:33:09;;;;;;;0.80;0.75;;;;;;;16.71;67.90;100060.84;6241300;28;20057;-74
2022/05/26 00:36:12;;;;;;;1.73;0.60;;;;;;;16.68;66.42;100063.75;6274287;28;20052;-74
2022/05/26 00:39:17;;;;;;;0.50;0.50;;;;;;;16.65;66.68;100066.63;6274145;28;20136;-74
2022/05/26 00:42:18;;;;;;;4.57;1.17;;;;;;;16.69;65.05;100080.38;6274108;28;20129;-74
2022/05/26 00:45:19;;;;;;;1.35;0.60;;;;;;;16.62;65.44;100087.97;6274133;28;20361;-74
2022/05/26 00:48:24;;;;;;;0.45;0.40;;;;;;;16.59;64.95;100090.03;6274156;28;20169;-74
2022/05/26 00:51:32;;;;;;;1.83;0.50;;;;;;;16.56;65.13;100093.78;6275295;28;20063;-75
2022/05/26 00:54:33;;;;;;;1.08;0.60;;;;;;;16.63;65.52;100094.91;6274924;28;20102;-74
2022/05/26 00:57:47;;;;;;;1.98;0.50;;;;;;;16.64;64.66;100104.50;6273904;28;20578;-74
2022/05/26 01:00:48;;;;;;;0.40;0.40;;;;;;;16.49;65.66;100092.63;6273596;28;20136;-74
2022/05/26 01:03:53;;;;;;;0.50;0.50;;;;;;;16.45;65.62;100092.06;6256266;28;20557;-74
2022/05/26 01:07:05;;;;;;;1.70;0.45;;;;;;;16.44;65.96;100095.66;6255892;28;20052;-74
2022/05/26 01:10:10;;;;;;;3.53;0.63;;;;;;;16.45;65.70;100097.34;6307171;28;20057;-75
2022/05/26 01:13:17;;;;;;;0.93;0.57;;;;;;;16.37;65.70;100105.03;6272626;28;20458;-74
2022/05/26 01:16:32;;;;;;;1.38;0.65;;;;;;;16.24;65.91;100105.22;6274877;28;20440;-74
2022/05/26 01:20:11;;;;;;;1.02;0.50;;;;;;;16.32;65.36;100104.59;6256578;28;20056;-75
2022/05/26 01:23:22;;;;;;;0.57;0.47;;;;;;;16.35;65.10;100092.94;6274323;28;20110;-76
2022/05/26 01:26:44;;;;;;;0.50;0.50;;;;;;;16.34;65.03;100089.50;6274484;28;20098;-74
2022/05/26 01:30:04;;;;;;;0.88;0.40;;;;;;;16.19;64.88;100094.25;6272920;28;20041;-74
2022/05/26 01:33:30;;;;;;;0.70;0.43;;;;;;;16.06;64.26;100106.75;6274169;28;20053;-75
2022/05/26 01:36:47;;;;;;;3.08;0.60;;;;;;;15.93;62.98;100109.56;6275942;28;20137;-74
2022/05/26 01:40:11;;;;;;;0.80;0.60;;;;;;;15.82;62.41;100110.47;6280799;28;20040;-75
2022/05/26 01:43:28;;;;;;;2.78;0.50;;;;;;;15.86;61.53;100114.50;6287606;28;20052;-75
2022/05/26 01:46:39;;;;;;;2.45;0.70;;;;;;;15.76;61.73;100102.25;6273955;28;20509;-74
2022/05/26 01:49:44;;;;;;;1.17;0.63;;;;;;;15.75;62.09;100108.47;6275964;28;20045;-75
2022/05/26 01:52:52;;;;;;;2.75;0.80;;;;;;;15.58;62.67;100105.38;6272335;28;20045;-74
2022/05/26 01:56:09;;;;;;;0.93;0.70;;;;;;;15.64;62.96;100109.31;6273588;28;20044;-75
2022/05/26 01:59:46;;;;;;;1.08;0.70;;;;;;;15.69;62.77;100107.16;6273461;28;20048;-75
2022/05/26 02:03:02;;;;;;;2.45;0.73;;;;;;;15.50;63.80;100118.31;6271613;28;20061;-75
2022/05/26 02:06:23;;;;;;;1.75;0.77;;;;;;;15.31;64.32;100119.78;6255271;28;20063;-74
2022/05/26 02:09:38;;;;;;;2.10;0.77;;;;;;;15.30;64.60;100123.38;6273221;28;20076;-75
2022/05/26 02:12:59;;;;;;;4.60;0.80;;;;;;;15.10;64.81;100121.50;6305434;28;20510;-73
2022/05/26 02:16:08;;;;;;;2.13;0.85;;;;;;;15.13;64.67;100133.56;6273000;28;20036;-74
2022/05/26 02:19:20;;;;;;;1.08;0.80;;;;;;;15.06;64.78;100138.47;6288403;28;20045;-74
2022/05/26 02:22:36;;;;;;;1.00;0.80;;;;;;;14.91;65.12;100128.19;6279779;28;20048;-74
2022/05/26 02:25:37;;;;;;;4.32;0.80;;;;;;;14.96;64.84;100134.88;6295552;28;20068;-74
2022/05/26 02:31:58;;;;;;;5.80;1.00;;;;;;;14.88;65.58;100133.66;6296289;28;20059;-75
2022/05/26 02:35:02;;;;;;;2.70;0.93;;;;;;;14.82;65.68;100136.78;6296157;28;20041;-74
2022/05/26 02:38:11;;;;;;;1.33;0.93;;;;;;;14.74;65.51;100146.19;6296228;28;20055;-74
2022/05/26 02:41:11;;;;;;;1.52;0.70;;;;;;;14.75;66.14;100145.28;6296011;28;20480;-75
2022/05/26 02:44:12;;;;;;;1.15;0.70;;;;;;;14.71;66.20;100145.47;6279352;28;20087;-74
2022/05/26 02:47:36;;;;;;;2.08;1.08;;;;;;;14.72;66.55;100154.19;6278791;28;20044;-74
2022/05/26 02:50:52;;;;;;;5.20;1.00;;;;;;;14.69;66.14;100157.06;6329085;28;20057;-74
2022/05/26 02:54:24;;;;;;;2.50;1.00;;;;;;;14.71;66.79;100169.13;6295112;28;20444;-75
2022/05/26 02:57:52;;;;;;;1.50;1.00;;;;;;;14.72;66.35;100167.31;6295169;28;20449;-75
2022/05/26 03:00:58;;;;;;;1.63;1.00;;;;;;;14.72;66.31;100169.94;6295093;28;20037;-74
2022/05/26 03:04:07;;;;;;;6.95;1.13;;;;;;;14.66;67.04;100171.28;6294944;28;20071;-74
2022/05/26 03:07:14;;;;;;;1.52;1.20;;;;;;;14.72;66.81;100180.47;6294675;28;20556;-74
2022/05/26 03:10:17;;;;;;;0.95;0.73;;;;;;;14.74;66.55;100188.22;6296170;28;20040;-75
2022/05/26 03:13:18;;;;;;;2.20;1.08;;;;;;;14.80;66.65;100190.38;6289924;28;20051;-75
2022/05/26 03:16:19;;;;;;;1.40;1.10;;;;;;;14.80;66.77;100190.38;6329232;28;20117;-74
2022/05/26 03:19:21;;;;;;;3.00;0.93;;;;;;;14.82;66.77;100196.34;6277501;28;20051;-74
2022/05/26 03:22:22;;;;;;;5.30;1.20;;;;;;;14.87;66.88;100196.84;6271050;28;20388;-74
2022/05/26 03:25:22;;;;;;;1.25;1.10;;;;;;;14.80;67.29;100199.09;6253221;28;20098;-75
2022/05/26 03:28:28;;;;;;;2.17;1.15;;;;;;;14.81;67.24;100198.16;6291021;28;20076;-74
2022/05/26 03:31:30;;;;;;;1.40;1.10;;;;;;;14.71;67.91;100207.69;6295841;28;20040;-73
2022/05/26 03:41:09;;;;;;;1.63;1.30;;;;;;;14.74;68.70;100230.25;6295471;28;20183;-74
2022/05/26 03:44:10;;;;;;;4.90;1.23;;;;;;;14.73;68.73;100242.56;6274767;28;20484;-74
2022/05/26 03:47:11;;;;;;;2.05;1.02;;;;;;;14.82;68.74;100236.59;6275764;28;20481;-75
2022/05/26 03:50:12;;;;;;;3.70;1.02;;;;;;;14.80;69.45;100235.03;6257867;28;20049;-76
2022/05/26 03:53:13;;;;;;;1.20;1.10;;;;;;;14.75;69.80;100239.81;6289987;28;20542;-74
2022/05/26 03:56:14;;;;;;;3.15;1.00;;;;;;;14.71;69.65;100247.91;6265929;28;20056;-74
2022/05/26 03:59:15;;;;;;;1.48;1.20;;;;;;;14.74;70.60;100251.25;6300508;28;20049;-75
2022/05/26 04:02:16;;;;;;;3.60;1.30;;;;;;;14.75;71.02;100250.31;6300305;28;20154;-73
2022/05/26 04:05:18;;;;;;;1.38;1.15;;;;;;;14.79;70.99;100255.22;6265867;28;20052;-74
2022/05/26 04:08:18;;;;;;;7.65;1.42;;;;;;;14.85;69.69;100264.44;6332551;28;20059;-74
2022/05/26 04:11:23;;;;;;;1.65;1.35;;;;;;;14.85;69.18;100262.66;6282647;28;20045;-74
2022/05/26 04:14:24;;;;;;;1.60;1.20;;;;;;;14.93;69.06;100264.69;6299553;28;20162;-75
2022/05/26 04:17:25;;;;;;;1.65;0.98;;;;;;;15.00;68.66;100275.56;6300792;28;20044;-74
2022/05/26 04:20:26;;;;;;;2.08;1.50;;;;;;;14.99;68.90;100280.00;6299669;28;20578;-75
2022/05/26 04:23:27;;;;;;;1.88;1.42;;;;;;;15.16;68.90;100283.97;6300611;28;20067;-75
2022/05/26 04:26:28;;;;;;;5.68;1.50;;;;;;;15.32;67.66;100289.72;6299380;28;20483;-75
2022/05/26 04:29:29;;;;;;;3.03;1.80;;;;;;;15.34;67.42;100292.22;6274377;28;20056;-75
2022/05/26 04:32:30;;;;;;;2.13;1.50;;;;;;;15.54;67.15;100287.19;6274378;28;20045;-74
2022/05/26 04:35:31;;;;;;;4.43;1.40;;;;;;;15.65;65.93;100292.47;6275626;28;20037;-75
2022/05/26 04:38:33;;;;;;;3.00;1.50;;;;;;;15.58;65.04;100297.34;6273710;28;20045;-75
2022/05/26 04:41:33;;;;;;;4.88;2.20;;;;;;;15.49;65.03;100298.91;6274580;28;20045;-75
2022/05/26 04:44:37;;;;;;;4.63;1.60;;;;;;;15.50;65.15;100303.25;6275233;28;20040;-75
2022/05/26 04:47:38;;;;;;;1.67;1.23;;;;;;;15.68;65.53;100314.09;6273001;28;20480;-74
2022/05/26 04:50:39;;;;;;;3.05;1.17;;;;;;;15.81;64.78;100311.34;6274033;28;20041;-75
2022/05/26 04:53:39;;;;;;;2.42;1.33;;;;;;;15.86;64.63;100324.19;6273934;28;20057;-75
2022/05/26 04:56:40;;;;;;;5.47;1.45;;;;;;;15.85;63.66;100320.69;6290018;28;20053;-75
2022/05/26 04:59:41;;;;;;;4.20;1.50;;;;;;;15.92;63.11;100321.06;6296808;28;20060;-74
2022/05/26 05:02:42;;;;;;;2.65;1.13;;;;;;;15.98;63.63;100323.22;6285997;28;20041;-75
2022/05/26 05:05:43;;;;;;;3.65;1.35;;;;;;;16.02;63.20;100332.53;6307303;28;20064;-74
2022/05/26 05:08:45;;;;;;;2.95;1.40;;;;;;;16.08;63.09;100341.72;6277233;28;20053;-75
2022/05/26 05:11:46;;;;;;;3.60;1.20;;;;;;;16.15;61.54;100348.19;6298365;28;20033;-74
2022/05/26 05:14:49;;;;;;;3.95;1.30;;;;;;;16.17;61.13;100340.16;6298322;28;20036;-74
2022/05/26 05:17:50;;;;;;;5.07;1.23;;;;;;;16.37;61.60;100349.06;6298241;28;20049;-73
2022/05/26 05:20:53;;;;;;;2.78;1.33;;;;;;;16.30;59.64;100346.09;6298219;28;20044;-74
2022/05/26 05:23:59;;;;;;;2.67;1.23;;;;;;;16.46;58.69;100358.88;6298111;28;20055;-74
2022/05/26 05:27:31;;;;;;;2.13;0.90;;;;;;;16.58;58.45;100368.44;6299275;28;20051;-74
2022/05/26 05:30:40;;;;;;;1.00;0.80;;;;;;;16.74;57.37;100375.94;6297165;28;20061;-73
2022/05/26 05:33:55;;;;;;;1.02;0.90;;;;;;;16.89;58.99;100374.69;6269555;28;20515;-75
2022/05/26 05:36:57;;;;;;;2.60;1.25;;;;;;;17.00;55.66;100388.78;6281338;28;20048;-75
2022/05/26 05:39:59;;;;;;;;;;;;;;;17.11;54.86;100391.34;6257074;28;20124;-75
2022/05/26 05:43:00;;;;;;;1.05;0.88;;;;;;;17.09;55.10;100399.41;6280924;28;19921;-75
2022/05/26 05:46:01;;;;;;;4.17;0.97;;;;;;;17.00;54.07;100396.69;6298826;28;20510;-75
2022/05/26 05:49:04;;;;;;;1.38;0.90;;;;;;;17.22;54.99;100404.50;6260354;28;20302;-75
2022/05/26 05:52:21;;;;;;;2.65;0.90;;;;;;;17.18;53.29;100412.78;6281144;28;20083;-75
2022/05/26 05:55:22;;;;;;;2.20;0.98;;;;;;;17.23;53.79;100405.31;6293818;28;20482;-76
2022/05/26 05:58:23;;;;;;;3.13;1.13;;;;;;;17.46;53.10;100406.88;6297140;28;20049;-76
2022/05/26 06:01:24;;;;;;;4.50;1.25;;;;;;;17.62;53.05;100405.56;6297174;28;20052;-75
2022/05/26 06:04:25;;;;;;;2.67;0.80;;;;;;;17.67;49.05;100406.03;6255715;28;20056;-74
2022/05/26 06:07:26;;;;;;;3.70;1.15;;;;;;;18.00;49.24;100418.16;6255191;28;20059;-74
2022/05/26 06:10:29;;;;;;;1.30;0.70;;;;;;;18.15;48.50;100415.16;6272099;28;20480;-75
2022/05/26 06:13:30;;;;;;;3.80;0.60;;;;;;;18.23;46.20;100425.88;6271991;28;20155;-74
2022/05/26 06:16:32;;;;;;;0.60;0.60;;;;;;;18.33;46.70;100430.22;6271937;28;20049;-74
2022/05/26 06:19:36;;;;;;;0.93;0.70;;;;;;;18.31;45.75;100426.88;6273102;28;20053;-75
2022/05/26 06:22:45;;;;;;;2.95;0.50;;;;;;;18.48;45.65;100428.03;6273080;28;20045;-75
2022/05/26 06:25:47;;;;;;;1.80;0.80;;;;;;;18.79;44.77;100435.91;6293556;28;20143;-75
2022/05/26 06:38:46;;;;;;;1.90;1.13;;;;;;;18.87;43.10;100437.88;6297080;28;20048;-75
2022/05/26 06:42:05;;;;;;;2.20;0.60;;;;;;;19.12;42.77;100437.31;6279239;28;20079;-75
2022/05/26 06:45:06;;;;;;;2.65;1.45;;;;;;;19.33;41.79;100450.41;6315242;28;20147;-74
2022/05/26 06:48:07;;;;;;;3.20;1.05;;;;;;;19.38;40.64;100449.97;6312898;28;20509;-74
2022/05/26 06:51:08;;;;;;;1.92;0.80;;;;;;;19.84;41.25;100448.38;6260346;28;20372;-74
2022/05/26 06:54:10;;;;;;;1.30;0.50;;;;;;;19.95;40.36;100447.34;6295870;28;20111;-75
2022/05/26 06:57:12;;;;;;;1.60;0.70;;;;;;;19.79;40.40;100447.13;6282302;28;20049;-75
2022/05/26 07:00:15;;;;;;;0.40;0.40;;;;;;;19.93;40.54;100458.13;6287260;28;20403;-75
2022/05/26 07:03:15;;;;;;;0.90;0.70;;;;;;;20.30;42.13;100451.97;6288772;28;20057;-74
2022/05/26 07:06:19;;;;;;;5.07;0.67;;;;;;;20.28;40.37;100453.06;6280126;28;20052;-75
2022/05/26 07:09:22;;;;;;;1.27;0.70;;;;;;;20.38;39.90;100450.38;6284321;28;20072;-74
2022/05/26 07:12:24;;;;;;;1.75;0.52;;;;;;;20.39;40.03;100452.91;6286589;28;20048;-75
2022/05/26 07:15:25;;;;;;;6.70;0.85;;;;;;;20.11;39.75;100454.69;6284539;28;20079;-75
2022/05/26 07:18:27;;;;;;;1.17;0.63;;;;;;;20.05;40.59;100458.75;6270834;28;20045;-75
2022/05/26 07:21:27;;;;;;;;;;;;;;;20.32;39.23;100459.75;6270656;28;20053;-75
2022/05/26 07:24:28;;;;;;;0.68;0.40;;;;;;;20.83;39.85;100452.25;6293979;28;19994;-74
2022/05/26 07:27:29;;;;;;;0.60;0.50;;;;;;;21.16;43.36;100460.50;6295694;28;20044;-75
2022/05/26 07:30:30;;;;;;;1.13;0.60;;;;;;;21.18;38.18;100462.00;6295941;28;20292;-75
2022/05/26 07:33:31;;;;;;;2.77;0.80;;;;;;;21.26;38.85;100461.25;6279070;28;20395;-75
2022/05/26 07:43:10;;;;;;;0.57;0.50;;;;;;;21.92;37.49;100462.59;6289215;28;20068;-75
2022/05/26 07:46:11;;;;;;;1.33;0.70;;;;;;;21.20;38.13;100461.88;6270776;28;20060;-75
2022/05/26 07:49:12;;;;;;;0.57;0.50;;;;;;;21.62;38.97;100470.03;6270415;28;20126;-74
2022/05/26 07:52:15;;;;;;;1.60;0.75;;;;;;;21.66;38.72;100474.06;6253955;28;20450;-76
2022/05/26 07:55:18;;;;;;;4.22;0.43;;;;;;;22.12;37.15;100479.13;6271135;28;20057;-76
2022/05/26 07:58:20;;;;;;;0.65;0.40;;;;;;;21.69;37.24;100476.38;6282584;28;20044;-76
2022/05/26 08:01:20;;;;;;;0.50;0.40;;;;;;;21.97;36.57;100480.69;6277428;28;20124;-75
2022/05/26 08:04:22;;;;;;;0.90;0.50;;;;;;;22.39;37.06;100478.13;6261131;28;20053;-74
2022/05/26 08:07:23;;;;;;;0.70;0.52;;;;;;;21.79;36.38;100481.59;6266412;28;20064;-74
2022/05/26 08:10:24;;;;;;;2.50;0.40;;;;;;;21.81;36.42;100484.13;6277610;28;20060;-75
2022/05/26 08:13:25;;;;;;;0.75;0.45;;;;;;;21.96;36.69;100484.38;6279324;28;20044;-77
2022/05/26 08:16:26;;;;;;;3.40;0.75;;;;;;;22.42;37.26;100485.75;6270336;28;20049;-74
2022/05/26 08:19:29;;;;;;;1.85;0.55;;;;;;;22.15;35.62;100478.81;6271289;28;20064;-77
2022/05/26 08:22:30;;;;;;;1.15;0.45;;;;;;;22.17;36.62;100484.78;6289516;28;20055;-75
2022/05/26 08:25:31;;;;;;;2.40;0.40;;;;;;;21.75;36.71;100490.03;6274642;28;20053;-75
2022/05/26 08:28:32;;;;;;;1.77;0.50;;;;;;;22.02;35.03;100483.72;6274697;28;20075;-75
2022/05/26 08:31:33;;;;;;;0.98;0.68;;;;;;;21.95;35.61;100488.84;6276080;28;20044;-75
2022/05/26 08:34:33;;;;;;;1.60;0.57;;;;;;;22.67;35.94;100483.19;6241735;28;20108;-74
2022/05/26 08:37:35;;;;;;;1.00;0.40;;;;;;;23.40;34.34;100479.03;6274147;28;20052;-75
2022/05/26 08:40:49;;;;;;;3.70;0.50;;;;;;;23.73;33.74;100487.81;6256874;28;20072;-75
2022/05/26 08:44:01;;;;;;;1.48;0.80;;;;;;;23.89;34.08;100485.16;6274944;28;20124;-75
2022/05/26 08:47:15;;;;;;;3.50;0.43;;;;;;;23.92;32.41;100484.78;6290539;28;20056;-75
2022/05/26 08:50:19;;;;;;;2.33;1.00;;;;;;;23.64;34.88;100484.31;6274132;28;20052;-75
2022/05/26 08:53:30;;;;;;;2.03;0.50;;;;;;;24.13;32.69;100484.25;6273888;28;20052;-75
2022/05/26 08:56:32;;;;;;;5.22;0.77;;;;;;;23.94;35.68;100485.44;6290953;28;20057;-75
2022/05/26 08:59:39;;;;;;;2.78;0.80;;;;;;;24.68;34.48;100479.88;6257597;28;20126;-74
2022/05/26 09:02:40;;;;;;;5.70;0.70;;;;;;;24.54;34.75;100477.94;6284264;28;20056;-75
2022/05/26 09:05:44;;;;;;;4.07;0.70;;;;;;;24.52;35.43;100490.63;6299057;28;20375;-75
2022/05/26 09:15:34;;;;;;;7.00;0.70;;;;;;;24.36;34.99;100485.31;6305273;28;20056;-74
2022/05/26 09:18:38;;;;;;;8.13;0.80;;;;;;;24.03;36.88;100475.63;6273312;28;20045;-75
2022/05/26 09:21:40;;;;;;;0.50;0.50;;;;;;;24.31;35.49;100481.34;6273690;28;20467;-77
2022/05/26 09:24:41;;;;;;;0.70;0.50;;;;;;;24.61;34.70;100475.44;6272429;28;20041;-77
2022/05/26 09:27:51;;;;;;;4.70;0.90;;;;;;;24.45;35.81;100474.47;6305633;28;20056;-77
2022/05/26 09:30:52;;;;;;;3.22;0.63;;;;;;;24.81;35.23;100471.31;6273419;28;20124;-74
2022/05/26 09:33:59;;;;;;;19.55;1.80;;;;;;;24.40;35.24;100478.63;6272606;28;20434;-75
2022/05/26 09:37:07;;;;;;;0.95;0.70;;;;;;;24.64;35.46;100478.56;6288625;28;20049;-75
2022/05/26 09:40:27;;;;;;;1.10;0.93;;;;;;;24.96;33.27;100471.38;6255591;28;20127;-75
2022/05/26 09:43:29;;;;;;;2.85;0.60;;;;;;;24.49;33.01;100480.28;6288533;28;20072;-74
2022/05/26 09:46:30;;;;;;;1.05;0.63;;;;;;;24.59;34.52;100478.25;6305193;28;20088;-75
2022/05/26 09:49:37;;;;;;;5.82;0.57;;;;;;;25.04;33.59;100473.97;6271663;28;20052;-74
2022/05/26 09:52:49;;;;;;;3.50;0.70;;;;;;;25.27;32.56;100474.00;6272836;28;20124;-75
2022/05/26 09:55:50;;;;;;;6.63;0.60;;;;;;;24.85;31.75;100477.09;6272779;28;20044;-74
2022/05/26 09:58:51;;;;;;;1.42;0.70;;;;;;;24.42;31.79;100469.47;6271706;28;20053;-75
2022/05/26 10:02:02;;;;;;;2.55;0.60;;;;;;;24.76;31.12;100459.50;6271521;28;20033;-75
2022/05/26 10:05:28;;;;;;;6.72;0.50;;;;;;;25.83;30.66;100465.63;6272187;28;20040;-75
2022/05/26 10:08:59;;;;;;;1.33;0.43;;;;;;;25.89;30.14;100472.09;6276833;28;20072;-75
2022/05/26 10:12:08;;;;;;;3.72;0.60;;;;;;;25.99;31.61;100461.16;6292789;28;20408;-73
2022/05/26 10:15:50;;;;;;;1.50;0.57;;;;;;;25.92;30.56;100459.22;6278047;28;20541;-74
2022/05/26 10:19:12;;;;;;;2.10;0.68;;;;;;;25.86;31.25;100470.63;6244167;28;20045;-74
2022/05/26 10:22:50;;;;;;;2.47;0.80;;;;;;;26.12;30.22;100450.63;6270829;28;20118;-74
2022/05/26 10:26:09;;;;;;;1.77;0.60;;;;;;;26.16;31.34;100449.25;6271656;28;20064;-74
2022/05/26 10:29:32;;;;;;;4.68;0.70;;;;;;;26.31;29.93;100455.38;6270571;28;20053;-74
2022/05/26 10:32:51;;;;;;;3.97;0.77;;;;;;;26.04;30.65;100448.88;6272105;28;20036;-75
2022/05/26 10:36:07;;;;;;;3.40;0.73;;;;;;;26.26;31.56;100446.28;6271926;28;20111;-74
2022/05/26 10:39:21;;;;;;;2.28;1.10;;;;;;;26.37;32.22;100453.81;6271808;28;20053;-75
2022/05/26 10:42:30;;;;;;;3.38;0.82;;;;;;;26.62;31.79;100453.53;6271896;28;20045;-75
2022/05/26 10:45:40;;;;;;;6.72;1.10;;;;;;;26.86;31.35;100450.50;6270921;28;20410;-73
2022/05/26 10:48:55;;;;;;;4.82;0.68;;;;;;;26.04;30.40;100446.19;6271569;28;20484;-76
2022/05/26 10:52:07;;;;;;;3.50;0.90;;;;;;;25.06;30.69;100439.06;6253888;28;20056;-75
2022/05/26 10:55:14;;;;;;;1.23;0.85;;;;;;;25.59;31.25;100441.81;6286932;28;20053;-75
2022/05/26 10:58:23;;;;;;;0.93;0.73;;;;;;;26.64;30.06;100435.44;6270360;28;20256;-75
2022/05/26 11:01:24;;;;;;;3.40;0.80;;;;;;;26.87;28.17;100436.09;6270016;28;20045;-75
2022/05/26 11:04:52;;;;;;;2.17;0.90;;;;;;;26.84;29.51;100436.47;6271475;28;20048;-75
2022/05/26 11:07:55;;;;;;;3.72;0.90;;;;;;;26.56;28.24;100448.91;6269767;28;20069;-75
2022/05/26 11:11:13;;;;;;;1.67;1.20;;;;;;;26.91;28.46;100424.00;6271210;28;20045;-75
2022/05/26 11:17:59;;;;;;;;;;;;;;;26.66;29.26;100420.84;6287694;28;20049;-75
2022/05/26 11:21:00;;;;;;;4.30;0.90;;;;;;;26.93;28.07;100421.09;6277947;28;20019;-75
2022/05/26 11:24:01;;;;;;;5.10;0.85;;;;;;;26.91;29.05;100423.13;6295996;28;20411;-75
2022/05/26 11:27:18;;;;;;;7.28;1.15;;;;;;;26.45;30.50;100423.47;6294567;28;20102;-72
2022/05/26 11:37:35;;;;;;;2.92;1.00;;;;;;;26.37;29.50;100412.88;6296020;28;20037;-74
2022/05/26 11:40:44;;;;;;;16.23;1.73;;;;;;;26.12;30.25;100413.19;6278280;28;20475;-74
2022/05/26 11:44:04;;;;;;;7.88;0.90;;;;;;;26.46;29.84;100409.06;6278622;28;20143;-73
2022/05/26 11:47:48;;;;;;;1.48;0.70;;;;;;;26.81;27.93;100401.22;6295891;28;20399;-73
2022/05/26 11:50:48;;;;;;;3.33;0.73;;;;;;;27.64;29.22;100404.19;6273936;28;20511;-73
2022/05/26 11:53:50;;;;;;;1.30;0.80;;;;;;;27.73;28.21;100394.94;6294013;28;20110;-73
2022/05/26 11:56:51;;;;;;;6.60;1.17;;;;;;;27.90;27.15;100398.13;6280317;28;20064;-73
2022/05/26 11:59:52;;;;;;;7.35;1.02;;;;;;;27.40;26.45;100398.22;6299901;28;20053;-74
2022/05/26 12:03:22;;;;;;;2.15;0.60;;;;;;;26.65;27.85;100391.63;6272080;28;20093;-74
2022/05/26 12:06:34;;;;;;;6.93;0.82;;;;;;;26.83;28.55;100393.81;6281693;28;20452;-73
2022/05/26 12:09:50;;;;;;;4.68;0.77;;;;;;;27.24;29.51;100388.66;6283123;28;20052;-74
2022/05/26 12:13:27;;;;;;;5.38;0.73;;;;;;;27.37;28.62;100382.56;6271915;28;20053;-74
2022/05/26 12:16:29;;;;;;;1.88;0.70;;;;;;;27.43;28.56;100370.25;6298284;28;20062;-74
2022/05/26 12:19:40;;;;;;;10.07;0.80;;;;;;;26.91;27.62;100369.59;6300931;28;20055;-74
2022/05/26 12:23:01;;;;;;;;;;;;;;;26.28;28.59;100372.88;6300232;28;20071;-73
2022/05/26 12:26:28;;;;;;;2.42;0.60;;;;;;;26.85;29.10;100357.84;6285837;28;19920;-73
2022/05/26 12:29:47;;;;;;;18.60;1.10;;;;;;;27.14;27.92;100345.28;6299483;28;20075;-73
2022/05/26 12:32:52;;;;;;;13.07;0.82;;;;;;;27.47;27.02;100350.06;6295167;28;20072;-73
2022/05/26 12:36:16;;;;;;;11.38;2.42;;;;;;;27.69;28.00;100340.88;6281897;28;20079;-73
2022/05/26 12:39:52;;;;;;;14.93;1.50;;;;;;;27.74;28.27;100357.22;6294764;28;20052;-74
2022/05/26 12:43:14;;;;;;;1.83;0.60;;;;;;;27.35;27.16;100338.25;6294850;28;20055;-74
2022/05/26 12:46:42;;;;;;;4.15;0.80;;;;;;;26.99;27.73;100334.66;6277540;28;20049;-74
2022/05/26 12:50:07;;;;;;;13.25;1.15;;;;;;;27.39;26.93;100332.28;6274062;28;20056;-75
2022/05/26 12:53:25;;;;;;;7.75;0.88;;;;;;;27.35;26.68;100339.06;6275582;28;20052;-74
2022/05/26 12:56:46;;;;;;;3.35;0.60;;;;;;;27.00;26.75;100319.44;6275418;28;20045;-74
2022/05/26 12:59:46;;;;;;;10.85;0.73;;;;;;;26.65;26.40;100328.19;6275255;28;20040;-74
2022/05/26 13:02:57;;;;;;;4.85;0.60;;;;;;;26.97;24.91;100325.97;6273798;28;20399;-74
2022/05/26 13:06:09;;;;;;;3.42;0.50;;;;;;;27.02;27.20;100328.91;6274612;28;20045;-73
2022/05/26 13:09:17;;;;;;;4.25;0.80;;;;;;;26.70;26.71;100330.28;6272502;28;20049;-73
2022/05/26 13:12:25;;;;;;;16.15;1.50;;;;;;;26.74;27.04;100328.91;6272745;28;20053;-73
2022/05/26 13:15:31;;;;;;;1.35;0.50;;;;;;;26.66;27.29;100329.84;6289928;28;20060;-73
2022/05/26 13:18:36;;;;;;;4.30;0.80;;;;;;;25.88;27.13;100331.44;6306149;28;20403;-75
2022/05/26 13:21:38;;;;;;;2.13;0.60;;;;;;;26.27;27.19;100323.06;6272529;28;20041;-73
2022/05/26 13:24:50;;;;;;;3.75;0.60;;;;;;;26.29;27.94;100333.56;6272626;28;20060;-74
2022/05/26 13:27:53;;;;;;;;;;;;;;;26.19;27.95;100325.88;6272948;28;20408;-74
2022/05/26 13:34:14;;;;;;;5.00;0.68;;;;;;;26.04;28.47;100333.09;6273474;28;20118;-74
2022/05/26 13:37:15;;;;;;;5.18;0.70;;;;;;;26.08;28.10;100326.34;6239014;28;20491;-73
2022/05/26 13:40:24;;;;;;;4.63;0.60;;;;;;;26.20;28.47;100319.50;6273350;28;20056;-75
2022/05/26 13:43:25;;;;;;;2.38;0.63;;;;;;;26.08;29.76;100310.31;6273359;28;20040;-75
2022/05/26 13:46:31;;;;;;;1.90;0.63;;;;;;;25.95;27.77;100315.53;6305606;28;20048;-75
2022/05/26 13:49:44;;;;;;;1.13;0.60;;;;;;;26.23;28.15;100308.44;6273407;28;20065;-74
2022/05/26 13:52:46;;;;;;;4.88;0.60;;;;;;;25.61;28.17;100324.91;6295883;28;20044;-73
2022/05/26 13:55:49;;;;;;;3.75;0.60;;;;;;;25.41;28.64;100327.31;6296518;28;20499;-74
2022/05/26 13:58:52;;;;;;;2.75;0.43;;;;;;;25.72;28.19;100322.63;6296412;28;20044;-73
2022/05/26 14:01:56;;;;;;;6.53;0.68;;;;;;;25.96;28.47;100306.47;6297610;28;20068;-73
2022/05/26 14:05:23;;;;;;;6.43;0.63;;;;;;;25.90;28.04;100311.56;6297485;28;20465;-74
2022/05/26 14:08:24;;;;;;;1.73;0.55;;;;;;;25.79;28.49;100311.19;6296961;28;20059;-74
2022/05/26 14:11:38;;;;;;;3.40;0.63;;;;;;;25.71;27.80;100320.13;6263828;28;20425;-74
2022/05/26 14:14:44;;;;;;;8.90;0.77;;;;;;;25.83;28.36;100313.28;6298099;28;20063;-74
2022/05/26 14:17:51;;;;;;;2.30;0.75;;;;;;;25.43;28.09;100311.94;6296457;28;20052;-74
2022/05/26 14:21:02;;;;;;;7.82;0.63;;;;;;;25.51;28.95;100306.50;6296543;28;20049;-74
2022/05/26 14:24:25;;;;;;;7.35;0.65;;;;;;;25.59;28.73;100297.56;6297892;28;20076;-73
2022/05/26 14:27:28;;;;;;;9.70;0.82;;;;;;;25.26;28.02;100303.28;6272785;28;20082;-73
2022/05/26 14:30:41;;;;;;;11.90;1.48;;;;;;;25.24;28.75;100310.63;6297515;28;20086;-73
2022/05/26 14:34:02;;;;;;;5.40;0.77;;;;;;;25.02;29.18;100297.16;6296436;28;20148;-74
2022/05/26 14:37:04;;;;;;;3.90;0.50;;;;;;;25.02;28.81;100293.63;6330399;28;20056;-74
2022/05/26 14:40:06;;;;;;;4.28;0.80;;;;;;;24.97;29.30;100296.84;6279764;28;20045;-73
2022/05/26 14:43:08;;;;;;;2.47;0.50;;;;;;;24.99;29.72;100300.16;6278694;28;21034;-74
2022/05/26 14:46:08;;;;;;;1.63;0.68;;;;;;;24.97;29.80;100290.69;6295283;28;20105;-75
2022/05/26 14:49:09;;;;;;;7.93;0.70;;;;;;;25.07;29.47;100297.41;6279292;28;20052;-75
2022/05/26 14:52:14;;;;;;;8.17;0.97;;;;;;;25.40;30.38;100293.63;6295965;28;20049;-74
2022/05/26 14:55:28;;;;;;;5.80;0.80;;;;;;;24.91;29.70;100286.91;6296521;28;20355;-74
2022/05/26 14:58:29;;;;;;;2.83;0.60;;;;;;;24.84;29.41;100300.16;6280111;28;20052;-74
2022/05/26 15:01:30;;;;;;;1.47;0.60;;;;;;;24.81;29.34;100284.53;6278185;28;20044;-73
2022/05/26 15:04:30;;;;;;;2.43;0.73;;;;;;;24.84;29.74;100283.31;6294859;28;20056;-74
2022/05/26 15:07:32;;;;;;;2.63;0.60;;;;;;;24.80;29.93;100285.50;6294729;28;20289;-74
2022/05/26 15:10:33;;;;;;;2.28;0.50;;;;;;;25.16;30.68;100282.16;6288678;28;20049;-74
2022/05/26 15:13:33;;;;;;;5.83;0.60;;;;;;;25.15;29.03;100272.50;6271225;28;20059;-73
2022/05/26 15:16:36;;;;;;;9.43;0.97;;;;;;;24.97;29.36;100272.84;6284037;28;20483;-74
2022/05/26 15:19:50;;;;;;;5.32;0.57;;;;;;;25.21;29.04;100268.31;6274514;28;20382;-74
2022/05/26 15:22:51;;;;;;;4.65;0.70;;;;;;;25.20;29.38;100264.75;6294722;28;20072;-74